sensor_id;sensor_type;location;lat;lon;timestamp;P1;durP1;ratioP1;P2;durP2;ratioP2
15944;SDS011;30172;48.832;8.732;2023-12-07T00:01:03;10.73;;;7.07;;
15944;SDS011;30172;48.832;8.732;2023-12-07T00:03:28;11.50;;;7.17;;
15944;SDS011;30172;48.832;8.732;2023-12-07T00:05:53;11.67;;;6.90;;
15944;SDS011;30172;48.832;8.732;2023-12-07T00:08:19;9.63;;;6.57;;
15944;SDS011;30172;48.832;8.732;2023-12-07T00:10:44;10.17;;;7.57;;
15944;SDS011;30172;48.832;8.732;2023-12-07T00:13:09;11.23;;;7.13;;
15944;SDS011;30172;48.832;8.732;2023-12-07T00:15:34;11.87;;;7.37;;
15944;SDS011;30172;48.832;8.732;2023-12-07T00:18:00;8.77;;;7.33;;
15944;SDS011;30172;48.832;8.732;2023-12-07T00:20:25;12.10;;;7.70;;
15944;SDS011;30172;48.832;8.732;2023-12-07T00:22:51;11.03;;;7.30;;
15944;SDS011;30172;48.832;8.732;2023-12-07T00:25:16;10.30;;;7.40;;
15944;SDS011;30172;48.832;8.732;2023-12-07T00:27:42;12.23;;;8.03;;
15944;SDS011;30172;48.832;8.732;2023-12-07T00:30:07;9.77;;;7.93;;
15944;SDS011;30172;48.832;8.732;2023-12-07T00:32:33;15.20;;;7.57;;
15944;SDS011;30172;48.832;8.732;2023-12-07T00:34:59;10.53;;;7.70;;
15944;SDS011;30172;48.832;8.732;2023-12-07T00:37:24;11.80;;;7.57;;
15944;SDS011;30172;48.832;8.732;2023-12-07T00:39:50;13.33;;;7.87;;
15944;SDS011;30172;48.832;8.732;2023-12-07T00:42:15;12.43;;;7.77;;
15944;SDS011;30172;48.832;8.732;2023-12-07T00:44:41;9.93;;;7.30;;
15944;SDS011;30172;48.832;8.732;2023-12-07T00:47:06;13.30;;;8.40;;
15944;SDS011;30172;48.832;8.732;2023-12-07T00:49:32;9.87;;;7.17;;
15944;SDS011;30172;48.832;8.732;2023-12-07T00:51:57;12.23;;;8.00;;
15944;SDS011;30172;48.832;8.732;2023-12-07T00:54:23;10.93;;;7.70;;
15944;SDS011;30172;48.832;8.732;2023-12-07T00:56:48;17.07;;;7.63;;
15944;SDS011;30172;48.832;8.732;2023-12-07T00:59:13;12.53;;;7.50;;
15944;SDS011;30172;48.832;8.732;2023-12-07T01:01:39;11.63;;;7.33;;
15944;SDS011;30172;48.832;8.732;2023-12-07T01:04:05;10.77;;;7.50;;
15944;SDS011;30172;48.832;8.732;2023-12-07T01:06:30;9.97;;;7.07;;
15944;SDS011;30172;48.832;8.732;2023-12-07T01:08:56;10.57;;;7.47;;
15944;SDS011;30172;48.832;8.732;2023-12-07T01:11:22;14.70;;;8.37;;
15944;SDS011;30172;48.832;8.732;2023-12-07T01:13:47;12.87;;;7.70;;
15944;SDS011;30172;48.832;8.732;2023-12-07T01:16:12;11.47;;;7.47;;
15944;SDS011;30172;48.832;8.732;2023-12-07T01:18:38;11.73;;;7.97;;
15944;SDS011;30172;48.832;8.732;2023-12-07T01:21:03;10.87;;;7.10;;
15944;SDS011;30172;48.832;8.732;2023-12-07T01:23:29;12.03;;;7.67;;
15944;SDS011;30172;48.832;8.732;2023-12-07T01:25:54;13.83;;;7.73;;
15944;SDS011;30172;48.832;8.732;2023-12-07T01:28:19;11.30;;;7.50;;
15944;SDS011;30172;48.832;8.732;2023-12-07T01:30:45;12.93;;;7.53;;
15944;SDS011;30172;48.832;8.732;2023-12-07T01:33:10;13.73;;;8.13;;
15944;SDS011;30172;48.832;8.732;2023-12-07T01:35:35;11.37;;;7.60;;
15944;SDS011;30172;48.832;8.732;2023-12-07T01:38:01;11.60;;;7.70;;
15944;SDS011;30172;48.832;8.732;2023-12-07T01:40:26;12.93;;;7.80;;
15944;SDS011;30172;48.832;8.732;2023-12-07T01:42:54;13.13;;;7.57;;
15944;SDS011;30172;48.832;8.732;2023-12-07T01:45:19;9.77;;;7.40;;
15944;SDS011;30172;48.832;8.732;2023-12-07T01:47:45;10.20;;;7.50;;
15944;SDS011;30172;48.832;8.732;2023-12-07T01:50:11;10.57;;;7.00;;
15944;SDS011;30172;48.832;8.732;2023-12-07T01:52:40;11.43;;;7.60;;
15944;SDS011;30172;48.832;8.732;2023-12-07T01:55:09;10.67;;;7.33;;
15944;SDS011;30172;48.832;8.732;2023-12-07T01:57:35;12.13;;;7.53;;
15944;SDS011;30172;48.832;8.732;2023-12-07T02:00:01;8.57;;;6.60;;
15944;SDS011;30172;48.832;8.732;2023-12-07T02:02:28;10.70;;;7.00;;
15944;SDS011;30172;48.832;8.732;2023-12-07T02:04:54;12.13;;;7.00;;
15944;SDS011;30172;48.832;8.732;2023-12-07T02:07:20;9.67;;;6.97;;
15944;SDS011;30172;48.832;8.732;2023-12-07T02:09:46;11.50;;;6.60;;
15944;SDS011;30172;48.832;8.732;2023-12-07T02:12:12;11.57;;;6.73;;
15944;SDS011;30172;48.832;8.732;2023-12-07T02:14:37;10.23;;;6.87;;
15944;SDS011;30172;48.832;8.732;2023-12-07T02:22:37;9.70;;;6.40;;
15944;SDS011;30172;48.832;8.732;2023-12-07T02:25:09;8.87;;;6.00;;
15944;SDS011;30172;48.832;8.732;2023-12-07T02:30:13;13.73;;;6.47;;
15944;SDS011;30172;48.832;8.732;2023-12-07T02:32:39;9.73;;;7.07;;
15944;SDS011;30172;48.832;8.732;2023-12-07T02:35:06;8.23;;;6.10;;
15944;SDS011;30172;48.832;8.732;2023-12-07T02:37:37;10.43;;;6.00;;
15944;SDS011;30172;48.832;8.732;2023-12-07T02:40:12;11.57;;;6.20;;
15944;SDS011;30172;48.832;8.732;2023-12-07T02:42:40;9.33;;;6.20;;
15944;SDS011;30172;48.832;8.732;2023-12-07T02:45:08;12.60;;;6.70;;
15944;SDS011;30172;48.832;8.732;2023-12-07T02:47:34;8.10;;;5.70;;
15944;SDS011;30172;48.832;8.732;2023-12-07T02:50:00;7.37;;;5.77;;
15944;SDS011;30172;48.832;8.732;2023-12-07T02:52:25;12.47;;;6.37;;
15944;SDS011;30172;48.832;8.732;2023-12-07T02:54:51;7.43;;;6.33;;
15944;SDS011;30172;48.832;8.732;2023-12-07T02:57:16;9.90;;;6.27;;
15944;SDS011;30172;48.832;8.732;2023-12-07T02:59:41;8.80;;;6.10;;
15944;SDS011;30172;48.832;8.732;2023-12-07T03:02:07;10.33;;;5.80;;
15944;SDS011;30172;48.832;8.732;2023-12-07T03:04:32;7.97;;;5.63;;
15944;SDS011;30172;48.832;8.732;2023-12-07T03:06:58;12.27;;;6.43;;
15944;SDS011;30172;48.832;8.732;2023-12-07T03:09:23;9.77;;;5.87;;
15944;SDS011;30172;48.832;8.732;2023-12-07T03:11:49;7.67;;;6.20;;
15944;SDS011;30172;48.832;8.732;2023-12-07T03:14:15;8.60;;;5.90;;
15944;SDS011;30172;48.832;8.732;2023-12-07T03:16:40;9.30;;;6.40;;
15944;SDS011;30172;48.832;8.732;2023-12-07T03:19:05;8.53;;;5.77;;
15944;SDS011;30172;48.832;8.732;2023-12-07T03:21:31;7.40;;;5.27;;
15944;SDS011;30172;48.832;8.732;2023-12-07T03:23:56;8.37;;;6.10;;
15944;SDS011;30172;48.832;8.732;2023-12-07T03:26:22;12.27;;;5.83;;
15944;SDS011;30172;48.832;8.732;2023-12-07T03:28:47;9.30;;;6.33;;
15944;SDS011;30172;48.832;8.732;2023-12-07T03:31:12;11.17;;;6.40;;
15944;SDS011;30172;48.832;8.732;2023-12-07T03:33:38;9.53;;;5.87;;
15944;SDS011;30172;48.832;8.732;2023-12-07T03:36:03;8.53;;;6.03;;
15944;SDS011;30172;48.832;8.732;2023-12-07T03:38:29;9.63;;;6.23;;
15944;SDS011;30172;48.832;8.732;2023-12-07T03:40:54;8.97;;;6.37;;
15944;SDS011;30172;48.832;8.732;2023-12-07T03:43:20;10.53;;;6.67;;
15944;SDS011;30172;48.832;8.732;2023-12-07T03:45:48;9.80;;;6.87;;
15944;SDS011;30172;48.832;8.732;2023-12-07T03:48:13;13.20;;;6.67;;
15944;SDS011;30172;48.832;8.732;2023-12-07T03:50:38;12.17;;;6.33;;
15944;SDS011;30172;48.832;8.732;2023-12-07T03:53:04;11.03;;;6.60;;
15944;SDS011;30172;48.832;8.732;2023-12-07T03:55:29;8.73;;;5.70;;
15944;SDS011;30172;48.832;8.732;2023-12-07T03:57:54;12.00;;;6.17;;
15944;SDS011;30172;48.832;8.732;2023-12-07T04:00:20;8.93;;;6.50;;
15944;SDS011;30172;48.832;8.732;2023-12-07T04:02:46;7.83;;;5.97;;
15944;SDS011;30172;48.832;8.732;2023-12-07T04:05:11;8.13;;;6.20;;
15944;SDS011;30172;48.832;8.732;2023-12-07T04:07:37;10.60;;;5.53;;
15944;SDS011;30172;48.832;8.732;2023-12-07T04:10:02;10.70;;;5.87;;
15944;SDS011;30172;48.832;8.732;2023-12-07T04:12:30;8.97;;;6.13;;
15944;SDS011;30172;48.832;8.732;2023-12-07T04:14:55;11.47;;;7.67;;
15944;SDS011;30172;48.832;8.732;2023-12-07T04:17:21;7.87;;;5.70;;
15944;SDS011;30172;48.832;8.732;2023-12-07T04:19:47;7.13;;;5.80;;
15944;SDS011;30172;48.832;8.732;2023-12-07T04:22:12;12.00;;;6.40;;
15944;SDS011;30172;48.832;8.732;2023-12-07T04:24:37;7.50;;;5.73;;
15944;SDS011;30172;48.832;8.732;2023-12-07T04:27:03;11.00;;;6.83;;
15944;SDS011;30172;48.832;8.732;2023-12-07T04:29:28;15.13;;;8.00;;
15944;SDS011;30172;48.832;8.732;2023-12-07T04:31:53;14.50;;;8.00;;
15944;SDS011;30172;48.832;8.732;2023-12-07T04:34:19;10.90;;;7.47;;
15944;SDS011;30172;48.832;8.732;2023-12-07T04:36:45;9.73;;;6.83;;
15944;SDS011;30172;48.832;8.732;2023-12-07T04:39:10;9.20;;;6.20;;
15944;SDS011;30172;48.832;8.732;2023-12-07T04:41:35;8.33;;;5.83;;
15944;SDS011;30172;48.832;8.732;2023-12-07T04:44:00;9.33;;;5.80;;
15944;SDS011;30172;48.832;8.732;2023-12-07T04:46:26;7.43;;;5.63;;
15944;SDS011;30172;48.832;8.732;2023-12-07T04:48:53;7.77;;;5.50;;
15944;SDS011;30172;48.832;8.732;2023-12-07T04:51:18;9.80;;;5.73;;
15944;SDS011;30172;48.832;8.732;2023-12-07T04:53:44;8.47;;;5.63;;
15944;SDS011;30172;48.832;8.732;2023-12-07T04:56:09;8.80;;;7.07;;
15944;SDS011;30172;48.832;8.732;2023-12-07T04:58:35;9.30;;;6.33;;
15944;SDS011;30172;48.832;8.732;2023-12-07T05:01:00;8.80;;;6.30;;
15944;SDS011;30172;48.832;8.732;2023-12-07T05:03:26;13.13;;;6.67;;
15944;SDS011;30172;48.832;8.732;2023-12-07T05:05:51;8.97;;;6.10;;
15944;SDS011;30172;48.832;8.732;2023-12-07T05:08:17;7.10;;;5.43;;
15944;SDS011;30172;48.832;8.732;2023-12-07T05:10:43;12.17;;;6.53;;
15944;SDS011;30172;48.832;8.732;2023-12-07T05:13:08;8.97;;;6.67;;
15944;SDS011;30172;48.832;8.732;2023-12-07T05:15:33;8.93;;;6.37;;
15944;SDS011;30172;48.832;8.732;2023-12-07T05:17:59;8.17;;;5.97;;
15944;SDS011;30172;48.832;8.732;2023-12-07T05:20:24;8.47;;;5.60;;
15944;SDS011;30172;48.832;8.732;2023-12-07T05:22:52;7.93;;;5.33;;
15944;SDS011;30172;48.832;8.732;2023-12-07T05:25:17;9.87;;;6.53;;
15944;SDS011;30172;48.832;8.732;2023-12-07T05:27:43;7.93;;;5.77;;
15944;SDS011;30172;48.832;8.732;2023-12-07T05:30:09;6.90;;;5.03;;
15944;SDS011;30172;48.832;8.732;2023-12-07T05:32:35;6.87;;;5.30;;
15944;SDS011;30172;48.832;8.732;2023-12-07T05:35:00;7.37;;;5.60;;
15944;SDS011;30172;48.832;8.732;2023-12-07T05:37:26;8.63;;;5.13;;
15944;SDS011;30172;48.832;8.732;2023-12-07T05:39:51;5.77;;;4.80;;
15944;SDS011;30172;48.832;8.732;2023-12-07T05:42:16;8.83;;;5.13;;
15944;SDS011;30172;48.832;8.732;2023-12-07T05:44:41;9.87;;;5.77;;
15944;SDS011;30172;48.832;8.732;2023-12-07T05:47:07;10.23;;;6.33;;
15944;SDS011;30172;48.832;8.732;2023-12-07T05:49:33;10.60;;;7.80;;
15944;SDS011;30172;48.832;8.732;2023-12-07T05:51:58;12.10;;;7.30;;
15944;SDS011;30172;48.832;8.732;2023-12-07T05:54:24;7.77;;;6.33;;
15944;SDS011;30172;48.832;8.732;2023-12-07T05:56:49;8.43;;;5.70;;
15944;SDS011;30172;48.832;8.732;2023-12-07T05:59:14;6.10;;;5.27;;
15944;SDS011;30172;48.832;8.732;2023-12-07T06:01:40;9.40;;;5.67;;
15944;SDS011;30172;48.832;8.732;2023-12-07T06:04:07;9.17;;;6.33;;
15944;SDS011;30172;48.832;8.732;2023-12-07T06:06:33;9.33;;;5.83;;
15944;SDS011;30172;48.832;8.732;2023-12-07T06:08:59;7.30;;;5.57;;
15944;SDS011;30172;48.832;8.732;2023-12-07T06:11:24;12.87;;;6.90;;
15944;SDS011;30172;48.832;8.732;2023-12-07T06:13:50;9.97;;;7.70;;
15944;SDS011;30172;48.832;8.732;2023-12-07T06:16:15;9.57;;;7.60;;
15944;SDS011;30172;48.832;8.732;2023-12-07T06:18:42;10.77;;;7.47;;
15944;SDS011;30172;48.832;8.732;2023-12-07T06:21:07;9.63;;;6.67;;
15944;SDS011;30172;48.832;8.732;2023-12-07T06:23:33;7.67;;;6.30;;
15944;SDS011;30172;48.832;8.732;2023-12-07T06:25:59;11.70;;;6.03;;
15944;SDS011;30172;48.832;8.732;2023-12-07T06:28:24;8.33;;;6.03;;
15944;SDS011;30172;48.832;8.732;2023-12-07T06:30:49;8.47;;;5.83;;
15944;SDS011;30172;48.832;8.732;2023-12-07T06:33:15;9.87;;;5.73;;
15944;SDS011;30172;48.832;8.732;2023-12-07T06:35:40;10.30;;;6.17;;
15944;SDS011;30172;48.832;8.732;2023-12-07T06:38:05;9.00;;;5.50;;
15944;SDS011;30172;48.832;8.732;2023-12-07T06:40:31;8.27;;;6.17;;
15944;SDS011;30172;48.832;8.732;2023-12-07T06:42:56;9.17;;;6.13;;
15944;SDS011;30172;48.832;8.732;2023-12-07T06:45:22;8.13;;;5.63;;
15944;SDS011;30172;48.832;8.732;2023-12-07T06:47:47;10.33;;;6.20;;
15944;SDS011;30172;48.832;8.732;2023-12-07T06:50:12;8.97;;;6.40;;
15944;SDS011;30172;48.832;8.732;2023-12-07T06:52:39;7.63;;;5.77;;
15944;SDS011;30172;48.832;8.732;2023-12-07T06:55:05;11.33;;;6.17;;
15944;SDS011;30172;48.832;8.732;2023-12-07T06:57:31;8.97;;;5.63;;
15944;SDS011;30172;48.832;8.732;2023-12-07T06:59:57;7.23;;;5.50;;
15944;SDS011;30172;48.832;8.732;2023-12-07T07:02:22;9.07;;;5.93;;
15944;SDS011;30172;48.832;8.732;2023-12-07T07:04:48;13.53;;;7.47;;
15944;SDS011;30172;48.832;8.732;2023-12-07T07:07:14;10.37;;;6.50;;
15944;SDS011;30172;48.832;8.732;2023-12-07T07:09:40;14.67;;;7.93;;
15944;SDS011;30172;48.832;8.732;2023-12-07T07:12:05;9.73;;;6.73;;
15944;SDS011;30172;48.832;8.732;2023-12-07T07:14:31;9.43;;;7.20;;
15944;SDS011;30172;48.832;8.732;2023-12-07T07:16:56;8.47;;;6.00;;
15944;SDS011;30172;48.832;8.732;2023-12-07T07:19:21;8.53;;;5.90;;
15944;SDS011;30172;48.832;8.732;2023-12-07T07:21:47;9.20;;;5.90;;
15944;SDS011;30172;48.832;8.732;2023-12-07T07:24:12;7.97;;;5.67;;
15944;SDS011;30172;48.832;8.732;2023-12-07T07:26:37;10.53;;;6.13;;
15944;SDS011;30172;48.832;8.732;2023-12-07T07:29:03;8.70;;;5.57;;
15944;SDS011;30172;48.832;8.732;2023-12-07T07:31:29;6.47;;;5.43;;
15944;SDS011;30172;48.832;8.732;2023-12-07T07:33:55;11.03;;;5.50;;
15944;SDS011;30172;48.832;8.732;2023-12-07T07:36:20;7.47;;;5.20;;
15944;SDS011;30172;48.832;8.732;2023-12-07T07:38:46;11.03;;;5.20;;
15944;SDS011;30172;48.832;8.732;2023-12-07T07:41:11;6.97;;;5.30;;
15944;SDS011;30172;48.832;8.732;2023-12-07T07:43:37;7.63;;;5.17;;
15944;SDS011;30172;48.832;8.732;2023-12-07T07:46:05;7.10;;;4.80;;
15944;SDS011;30172;48.832;8.732;2023-12-07T07:48:31;11.60;;;4.70;;
15944;SDS011;30172;48.832;8.732;2023-12-07T07:50:57;7.87;;;5.03;;
15944;SDS011;30172;48.832;8.732;2023-12-07T07:53:23;7.73;;;5.53;;
15944;SDS011;30172;48.832;8.732;2023-12-07T07:55:48;6.93;;;4.97;;
15944;SDS011;30172;48.832;8.732;2023-12-07T07:58:14;7.80;;;5.00;;
15944;SDS011;30172;48.832;8.732;2023-12-07T08:00:39;7.40;;;5.10;;
15944;SDS011;30172;48.832;8.732;2023-12-07T08:03:04;7.83;;;5.40;;
15944;SDS011;30172;48.832;8.732;2023-12-07T08:05:30;8.17;;;6.10;;
15944;SDS011;30172;48.832;8.732;2023-12-07T08:07:55;7.33;;;6.43;;
15944;SDS011;30172;48.832;8.732;2023-12-07T08:10:21;12.30;;;5.50;;
15944;SDS011;30172;48.832;8.732;2023-12-07T08:12:46;7.07;;;4.97;;
15944;SDS011;30172;48.832;8.732;2023-12-07T08:15:12;5.30;;;4.63;;
15944;SDS011;30172;48.832;8.732;2023-12-07T08:17:38;6.57;;;4.07;;
15944;SDS011;30172;48.832;8.732;2023-12-07T08:20:07;7.77;;;4.47;;
15944;SDS011;30172;48.832;8.732;2023-12-07T08:22:36;6.50;;;4.43;;
15944;SDS011;30172;48.832;8.732;2023-12-07T08:25:06;6.10;;;3.90;;
15944;SDS011;30172;48.832;8.732;2023-12-07T08:27:32;9.00;;;4.47;;
15944;SDS011;30172;48.832;8.732;2023-12-07T08:29:58;7.13;;;4.33;;
15944;SDS011;30172;48.832;8.732;2023-12-07T08:32:23;5.77;;;4.37;;
15944;SDS011;30172;48.832;8.732;2023-12-07T08:34:50;8.90;;;4.23;;
15944;SDS011;30172;48.832;8.732;2023-12-07T08:37:16;6.63;;;4.67;;
15944;SDS011;30172;48.832;8.732;2023-12-07T08:39:42;10.60;;;7.10;;
15944;SDS011;30172;48.832;8.732;2023-12-07T08:42:07;9.37;;;4.90;;
15944;SDS011;30172;48.832;8.732;2023-12-07T08:44:35;5.53;;;4.50;;
15944;SDS011;30172;48.832;8.732;2023-12-07T08:47:00;5.33;;;4.50;;
15944;SDS011;30172;48.832;8.732;2023-12-07T08:49:26;5.93;;;4.27;;
15944;SDS011;30172;48.832;8.732;2023-12-07T08:51:52;4.60;;;4.10;;
15944;SDS011;30172;48.832;8.732;2023-12-07T08:54:18;6.03;;;4.77;;
15944;SDS011;30172;48.832;8.732;2023-12-07T08:56:44;7.10;;;4.77;;
15944;SDS011;30172;48.832;8.732;2023-12-07T08:59:10;6.03;;;4.70;;
15944;SDS011;30172;48.832;8.732;2023-12-07T09:01:35;5.90;;;4.00;;
15944;SDS011;30172;48.832;8.732;2023-12-07T09:04:00;6.30;;;4.40;;
15944;SDS011;30172;48.832;8.732;2023-12-07T09:06:26;5.33;;;4.50;;
15944;SDS011;30172;48.832;8.732;2023-12-07T09:08:51;6.77;;;4.50;;
15944;SDS011;30172;48.832;8.732;2023-12-07T09:11:17;5.77;;;4.40;;
15944;SDS011;30172;48.832;8.732;2023-12-07T09:13:42;10.53;;;4.40;;
15944;SDS011;30172;48.832;8.732;2023-12-07T09:16:07;6.03;;;4.43;;
15944;SDS011;30172;48.832;8.732;2023-12-07T09:18:33;6.97;;;4.60;;
15944;SDS011;30172;48.832;8.732;2023-12-07T09:21:00;6.30;;;4.83;;
15944;SDS011;30172;48.832;8.732;2023-12-07T09:23:25;7.90;;;5.10;;
15944;SDS011;30172;48.832;8.732;2023-12-07T09:25:51;7.57;;;5.00;;
15944;SDS011;30172;48.832;8.732;2023-12-07T09:28:17;7.60;;;4.87;;
15944;SDS011;30172;48.832;8.732;2023-12-07T09:30:42;6.10;;;4.70;;
15944;SDS011;30172;48.832;8.732;2023-12-07T09:33:08;6.60;;;5.00;;
15944;SDS011;30172;48.832;8.732;2023-12-07T09:35:34;6.10;;;4.73;;
15944;SDS011;30172;48.832;8.732;2023-12-07T09:37:59;5.67;;;4.43;;
15944;SDS011;30172;48.832;8.732;2023-12-07T09:40:24;5.97;;;4.60;;
15944;SDS011;30172;48.832;8.732;2023-12-07T09:42:50;5.80;;;4.30;;
15944;SDS011;30172;48.832;8.732;2023-12-07T09:45:16;6.97;;;4.20;;
15944;SDS011;30172;48.832;8.732;2023-12-07T09:47:46;5.60;;;3.90;;
15944;SDS011;30172;48.832;8.732;2023-12-07T09:50:13;4.80;;;4.00;;
15944;SDS011;30172;48.832;8.732;2023-12-07T09:52:40;4.37;;;3.97;;
15944;SDS011;30172;48.832;8.732;2023-12-07T09:55:07;4.90;;;3.47;;
15944;SDS011;30172;48.832;8.732;2023-12-07T09:57:33;5.20;;;3.40;;
15944;SDS011;30172;48.832;8.732;2023-12-07T09:59:59;5.30;;;3.77;;
15944;SDS011;30172;48.832;8.732;2023-12-07T10:02:24;4.30;;;3.13;;
15944;SDS011;30172;48.832;8.732;2023-12-07T10:05:03;4.47;;;3.67;;
15944;SDS011;30172;48.832;8.732;2023-12-07T10:07:31;6.20;;;3.63;;
15944;SDS011;30172;48.832;8.732;2023-12-07T10:09:59;5.10;;;3.70;;
15944;SDS011;30172;48.832;8.732;2023-12-07T10:12:24;6.00;;;3.90;;
15944;SDS011;30172;48.832;8.732;2023-12-07T10:14:50;7.03;;;4.07;;
15944;SDS011;30172;48.832;8.732;2023-12-07T10:17:15;5.30;;;4.37;;
15944;SDS011;30172;48.832;8.732;2023-12-07T10:19:40;5.90;;;4.47;;
15944;SDS011;30172;48.832;8.732;2023-12-07T10:22:12;6.47;;;4.87;;
15944;SDS011;30172;48.832;8.732;2023-12-07T10:24:38;5.87;;;3.70;;
15944;SDS011;30172;48.832;8.732;2023-12-07T10:27:03;5.57;;;4.00;;
15944;SDS011;30172;48.832;8.732;2023-12-07T10:29:35;5.87;;;3.77;;
15944;SDS011;30172;48.832;8.732;2023-12-07T10:32:03;5.80;;;3.90;;
15944;SDS011;30172;48.832;8.732;2023-12-07T10:34:30;3.90;;;3.50;;
15944;SDS011;30172;48.832;8.732;2023-12-07T10:36:56;4.23;;;3.80;;
15944;SDS011;30172;48.832;8.732;2023-12-07T10:39:23;4.90;;;3.60;;
15944;SDS011;30172;48.832;8.732;2023-12-07T10:41:49;5.77;;;3.50;;
15944;SDS011;30172;48.832;8.732;2023-12-07T10:44:17;7.33;;;3.80;;
15944;SDS011;30172;48.832;8.732;2023-12-07T10:46:43;6.07;;;3.70;;
15944;SDS011;30172;48.832;8.732;2023-12-07T10:49:11;4.57;;;3.43;;
15944;SDS011;30172;48.832;8.732;2023-12-07T10:51:41;5.60;;;3.73;;
15944;SDS011;30172;48.832;8.732;2023-12-07T10:54:10;4.13;;;3.73;;
15944;SDS011;30172;48.832;8.732;2023-12-07T10:56:41;4.90;;;3.90;;
15944;SDS011;30172;48.832;8.732;2023-12-07T10:59:11;6.77;;;4.43;;
15944;SDS011;30172;48.832;8.732;2023-12-07T11:01:41;5.33;;;3.97;;
15944;SDS011;30172;48.832;8.732;2023-12-07T11:04:10;5.80;;;4.40;;
15944;SDS011;30172;48.832;8.732;2023-12-07T11:06:37;6.30;;;4.73;;
15944;SDS011;30172;48.832;8.732;2023-12-07T11:09:04;8.67;;;5.40;;
15944;SDS011;30172;48.832;8.732;2023-12-07T11:14:07;7.60;;;4.70;;
15944;SDS011;30172;48.832;8.732;2023-12-07T11:16:37;4.37;;;3.80;;
15944;SDS011;30172;48.832;8.732;2023-12-07T11:19:23;4.63;;;3.63;;
15944;SDS011;30172;48.832;8.732;2023-12-07T11:21:51;4.33;;;3.93;;
15944;SDS011;30172;48.832;8.732;2023-12-07T11:24:16;4.43;;;4.03;;
15944;SDS011;30172;48.832;8.732;2023-12-07T11:26:42;4.70;;;3.80;;
15944;SDS011;30172;48.832;8.732;2023-12-07T11:29:09;4.13;;;3.63;;
15944;SDS011;30172;48.832;8.732;2023-12-07T11:31:34;4.70;;;3.60;;
15944;SDS011;30172;48.832;8.732;2023-12-07T11:34:05;5.17;;;4.17;;
15944;SDS011;30172;48.832;8.732;2023-12-07T11:36:32;5.53;;;4.30;;
15944;SDS011;30172;48.832;8.732;2023-12-07T11:41:34;6.80;;;4.43;;
15944;SDS011;30172;48.832;8.732;2023-12-07T11:44:00;5.10;;;3.90;;
15944;SDS011;30172;48.832;8.732;2023-12-07T11:46:26;8.53;;;4.60;;
15944;SDS011;30172;48.832;8.732;2023-12-07T11:48:51;6.07;;;4.27;;
15944;SDS011;30172;48.832;8.732;2023-12-07T11:51:17;6.67;;;4.60;;
15944;SDS011;30172;48.832;8.732;2023-12-07T11:53:43;7.80;;;4.33;;
15944;SDS011;30172;48.832;8.732;2023-12-07T11:56:09;7.30;;;4.50;;
15944;SDS011;30172;48.832;8.732;2023-12-07T11:58:35;4.80;;;4.20;;
15944;SDS011;30172;48.832;8.732;2023-12-07T12:01:01;5.23;;;4.17;;
15944;SDS011;30172;48.832;8.732;2023-12-07T12:03:27;4.87;;;4.37;;
15944;SDS011;30172;48.832;8.732;2023-12-07T12:05:53;4.53;;;3.70;;
15944;SDS011;30172;48.832;8.732;2023-12-07T12:08:19;4.83;;;4.33;;
15944;SDS011;30172;48.832;8.732;2023-12-07T12:10:45;6.30;;;5.03;;
15944;SDS011;30172;48.832;8.732;2023-12-07T12:13:12;7.03;;;4.70;;
15944;SDS011;30172;48.832;8.732;2023-12-07T12:15:40;5.33;;;4.57;;
15944;SDS011;30172;48.832;8.732;2023-12-07T12:18:06;5.97;;;4.23;;
15944;SDS011;30172;48.832;8.732;2023-12-07T12:20:32;6.93;;;4.00;;
15944;SDS011;30172;48.832;8.732;2023-12-07T12:22:58;4.93;;;4.17;;
15944;SDS011;30172;48.832;8.732;2023-12-07T12:25:27;4.97;;;3.60;;
15944;SDS011;30172;48.832;8.732;2023-12-07T12:27:55;4.63;;;3.90;;
15944;SDS011;30172;48.832;8.732;2023-12-07T12:30:21;4.47;;;3.50;;
15944;SDS011;30172;48.832;8.732;2023-12-07T12:32:50;5.80;;;4.20;;
15944;SDS011;30172;48.832;8.732;2023-12-07T12:35:16;9.07;;;4.83;;
15944;SDS011;30172;48.832;8.732;2023-12-07T12:37:42;5.20;;;3.47;;
15944;SDS011;30172;48.832;8.732;2023-12-07T12:40:09;5.27;;;3.73;;
15944;SDS011;30172;48.832;8.732;2023-12-07T12:42:35;5.23;;;3.40;;
15944;SDS011;30172;48.832;8.732;2023-12-07T12:45:04;4.03;;;3.60;;
15944;SDS011;30172;48.832;8.732;2023-12-07T12:47:30;4.00;;;3.60;;
15944;SDS011;30172;48.832;8.732;2023-12-07T12:49:56;4.83;;;3.60;;
15944;SDS011;30172;48.832;8.732;2023-12-07T12:52:23;7.03;;;3.87;;
15944;SDS011;30172;48.832;8.732;2023-12-07T12:54:50;4.00;;;3.53;;
15944;SDS011;30172;48.832;8.732;2023-12-07T12:57:16;5.40;;;3.67;;
15944;SDS011;30172;48.832;8.732;2023-12-07T12:59:42;5.57;;;4.07;;
15944;SDS011;30172;48.832;8.732;2023-12-07T13:02:07;3.10;;;2.80;;
15944;SDS011;30172;48.832;8.732;2023-12-07T13:04:34;3.10;;;2.73;;
15944;SDS011;30172;48.832;8.732;2023-12-07T13:06:59;3.57;;;2.93;;
15944;SDS011;30172;48.832;8.732;2023-12-07T13:09:25;4.43;;;3.00;;
15944;SDS011;30172;48.832;8.732;2023-12-07T13:11:50;4.30;;;2.80;;
15944;SDS011;30172;48.832;8.732;2023-12-07T13:14:16;3.60;;;2.80;;
15944;SDS011;30172;48.832;8.732;2023-12-07T13:16:42;3.20;;;2.90;;
15944;SDS011;30172;48.832;8.732;2023-12-07T13:19:07;3.87;;;3.17;;
15944;SDS011;30172;48.832;8.732;2023-12-07T13:21:33;4.20;;;2.90;;
15944;SDS011;30172;48.832;8.732;2023-12-07T13:23:58;2.93;;;2.63;;
15944;SDS011;30172;48.832;8.732;2023-12-07T13:26:24;3.83;;;2.77;;
15944;SDS011;30172;48.832;8.732;2023-12-07T13:28:49;4.87;;;3.50;;
15944;SDS011;30172;48.832;8.732;2023-12-07T13:31:14;5.03;;;3.40;;
15944;SDS011;30172;48.832;8.732;2023-12-07T13:33:40;3.90;;;3.50;;
15944;SDS011;30172;48.832;8.732;2023-12-07T13:36:06;4.97;;;3.40;;
15944;SDS011;30172;48.832;8.732;2023-12-07T13:38:32;4.60;;;3.37;;
15944;SDS011;30172;48.832;8.732;2023-12-07T13:40:58;3.93;;;3.13;;
15944;SDS011;30172;48.832;8.732;2023-12-07T13:43:24;4.30;;;3.50;;
15944;SDS011;30172;48.832;8.732;2023-12-07T13:45:50;4.80;;;3.00;;
15944;SDS011;30172;48.832;8.732;2023-12-07T13:48:15;3.47;;;3.00;;
15944;SDS011;30172;48.832;8.732;2023-12-07T13:50:41;4.30;;;2.97;;
15944;SDS011;30172;48.832;8.732;2023-12-07T13:53:07;3.73;;;3.00;;
15944;SDS011;30172;48.832;8.732;2023-12-07T13:55:38;3.97;;;3.13;;
15944;SDS011;30172;48.832;8.732;2023-12-07T13:58:04;4.43;;;3.53;;
15944;SDS011;30172;48.832;8.732;2023-12-07T14:00:31;4.83;;;3.67;;
15944;SDS011;30172;48.832;8.732;2023-12-07T14:02:57;4.57;;;3.50;;
15944;SDS011;30172;48.832;8.732;2023-12-07T14:05:23;6.13;;;3.93;;
15944;SDS011;30172;48.832;8.732;2023-12-07T14:07:49;7.53;;;4.17;;
15944;SDS011;30172;48.832;8.732;2023-12-07T14:10:15;5.07;;;3.87;;
15944;SDS011;30172;48.832;8.732;2023-12-07T14:12:40;4.47;;;3.47;;
15944;SDS011;30172;48.832;8.732;2023-12-07T14:15:06;3.93;;;3.37;;
15944;SDS011;30172;48.832;8.732;2023-12-07T14:17:32;5.23;;;3.40;;
15944;SDS011;30172;48.832;8.732;2023-12-07T14:20:03;4.63;;;3.40;;
15944;SDS011;30172;48.832;8.732;2023-12-07T14:22:32;4.00;;;3.60;;
15944;SDS011;30172;48.832;8.732;2023-12-07T14:24:58;4.17;;;3.50;;
15944;SDS011;30172;48.832;8.732;2023-12-07T14:27:23;4.10;;;3.40;;
15944;SDS011;30172;48.832;8.732;2023-12-07T14:29:49;6.20;;;3.60;;
15944;SDS011;30172;48.832;8.732;2023-12-07T14:32:14;4.57;;;3.77;;
15944;SDS011;30172;48.832;8.732;2023-12-07T14:34:40;5.33;;;3.90;;
15944;SDS011;30172;48.832;8.732;2023-12-07T14:37:06;5.60;;;3.90;;
15944;SDS011;30172;48.832;8.732;2023-12-07T14:39:33;6.27;;;4.90;;
15944;SDS011;30172;48.832;8.732;2023-12-07T14:42:01;10.93;;;8.33;;
15944;SDS011;30172;48.832;8.732;2023-12-07T14:44:27;6.80;;;5.77;;
15944;SDS011;30172;48.832;8.732;2023-12-07T14:46:53;5.97;;;3.97;;
15944;SDS011;30172;48.832;8.732;2023-12-07T14:49:19;7.40;;;3.80;;
15944;SDS011;30172;48.832;8.732;2023-12-07T14:51:46;4.70;;;3.80;;